< < Back
Terminal Aerodrome Forecast


Current Version              Previous Versions:   1  2  3  4  5  6  7  8  9  

Terminal Aerodrome Forecast

374
FTUS42 KGSP 250348 AAB
TAFGSP
TAF AMD
KGSP 250348Z 2504/2524 23004KT P6SM SCT150
      TEMPO 2504/2508 BKN006
     FM250900 34006KT P6SM BKN050
     FM251900 04007KT P6SM BKN090=

Latest METAR

962
SAUS70 KWBC 260100 RRB
MTRGSP
METAR KGSP 260053Z 00000KT 10SM BKN034 12/04 A3005 RMK AO2 PRESRR SLP174
T01220044


USA.gov is the U.S. government's official web portal to all federal, state and local government web resources and services.